.
WxDataArchive / Data Records for 2014-07-03
2014-07-02 July 2014 2014-07-04

Data Records for Thursday, 03 July 2014

Time	Temp	Chill	HIndex	Humid	Dewpt	 Wind 	HiWind	WindDir	Rain 	Barom
-----	----	-----	------	-----	-----	------	------	-------	-----	-----
00:00	65.6	65.6	65.6	70	55.5	0	3	292	0.00	29.948 
00:05	65.6	65.6	65.6	70	55.5	1	4	292	0.00	29.948 
00:10	65.5	65.5	65.5	71	55.8	1	3	292	0.00	29.948 
00:15	65.3	65.3	65.3	72	56.0	1	3	292	0.00	29.947 
00:20	65.2	65.2	65.2	72	55.9	0	1	292	0.00	29.947 
00:25	65.2	65.2	65.2	73	56.3	0	1	292	0.00	29.947 
00:30	65.2	65.2	65.2	73	56.3	0	1	292	0.00	29.951 
00:35	65.2	65.2	65.2	73	56.3	0	1	292	0.00	29.951 
00:40	65.2	65.2	65.2	74	56.7	0	1	292	0.00	29.951 
00:45	65.0	65.0	65.0	74	56.5	0	1	292	0.00	29.952 
00:50	65.0	65.0	65.0	74	56.5	0	1	292	0.00	29.952 
00:55	64.8	64.8	64.8	75	56.7	1	3	292	0.00	29.952 
01:00	64.8	64.8	64.8	75	56.7	1	4	292	0.00	29.951 
01:05	64.7	64.7	64.7	76	57.0	0	2	292	0.00	29.951 
01:10	64.7	64.7	64.7	76	57.0	0	1	292	0.00	29.951 
01:15	64.7	64.7	64.7	77	57.3	0	2	292	0.00	29.949 
01:20	64.5	64.5	64.5	77	57.1	0	2	292	0.00	29.949 
01:25	64.5	64.5	64.5	77	57.1	0	2	292	0.00	29.949 
01:30	64.5	64.5	64.5	78	57.5	0	3	292	0.00	29.950 
01:35	64.3	64.3	64.3	78	57.3	1	3	292	0.00	29.950 
01:40	64.2	64.2	64.2	78	57.2	0	3	292	0.00	29.950 
01:45	64.2	64.2	64.2	79	57.5	0	1	292	0.00	29.948 
01:50	64.0	64.0	64.0	79	57.4	0	2	292	0.00	29.948 
01:55	63.9	63.9	63.9	79	57.3	0	2	292	0.00	29.948 
02:00	63.9	63.9	63.9	80	57.6	0	1	292	0.00	29.943 
02:05	63.9	63.9	63.9	80	57.6	0	2	292	0.00	29.943 
02:10	63.7	63.7	63.7	80	57.4	0	2	292	0.00	29.943 
02:15	63.7	63.7	63.7	80	57.4	0	1	292	0.00	29.942 
02:20	63.5	63.5	63.5	80	57.2	0	1	292	0.00	29.942 
02:25	63.4	63.4	63.4	80	57.1	0	2	292	0.00	29.942 
02:30	63.2	63.2	63.2	81	57.3	0	1	292	0.00	29.948 
02:35	63.2	63.2	63.2	81	57.3	0	1	292	0.00	29.948 
02:40	63.2	63.2	63.2	81	57.3	0	0	---	0.00	29.948 
02:45	63.2	63.2	63.2	82	57.6	0	0	---	0.00	29.952 
02:50	63.2	63.2	63.2	82	57.6	0	1	292	0.00	29.952 
02:55	63.2	63.2	63.2	82	57.6	0	1	292	0.00	29.952 
03:00	63.1	63.1	63.1	82	57.5	0	1	292	0.00	29.946 
03:05	63.1	63.1	63.1	82	57.5	0	1	292	0.00	29.946 
03:10	63.1	63.1	63.1	83	57.8	0	1	292	0.00	29.946 
03:15	63.1	63.1	63.1	83	57.8	0	1	292	0.00	29.941 
03:20	62.9	62.9	62.9	83	57.7	0	1	292	0.00	29.941 
03:25	62.7	62.7	62.7	83	57.5	0	1	292	0.00	29.941 
03:30	62.7	62.7	62.7	83	57.5	0	1	292	0.00	29.939 
03:35	62.7	62.7	62.7	83	57.5	0	1	292	0.00	29.939 
03:40	62.6	62.6	62.6	83	57.4	0	2	292	0.00	29.939 
03:45	62.6	62.6	62.6	84	57.7	0	2	292	0.00	29.937 
03:50	62.3	62.3	62.3	82	56.7	0	2	292	0.00	29.937 
03:55	62.0	62.0	62.0	78	55.1	1	3	292	0.00	29.937 
04:00	61.6	61.6	61.6	77	54.3	1	3	292	0.00	29.928 
04:05	61.5	61.5	61.5	76	53.9	1	4	292	0.00	29.928 
04:10	61.5	61.5	61.5	76	53.9	0	2	292	0.00	29.928 
04:15	61.3	61.3	61.3	76	53.7	0	2	292	0.00	29.932 
04:20	61.3	61.3	61.3	76	53.7	0	2	292	0.00	29.932 
04:25	61.2	61.2	61.2	76	53.6	0	1	292	0.00	29.932 
04:30	61.0	61.0	61.0	76	53.4	0	1	292	0.00	29.929 
04:35	61.0	61.0	61.0	77	53.7	1	4	292	0.00	29.929 
04:40	61.0	61.0	61.0	78	54.1	0	1	292	0.00	29.929 
04:45	60.9	60.9	60.9	79	54.3	0	1	292	0.00	29.932 
04:50	60.9	60.9	60.9	79	54.3	0	2	292	0.00	29.932 
04:55	60.9	60.9	60.9	80	54.7	0	3	292	0.00	29.932 
05:00	60.7	60.7	60.7	80	54.5	1	3	292	0.00	29.938 
05:05	60.4	60.4	60.4	77	53.2	1	3	292	0.00	29.938 
05:10	60.1	60.1	60.1	76	52.5	1	3	292	0.00	29.938 
05:15	59.9	59.9	59.9	75	52.0	1	3	292	0.00	29.944 
05:20	59.8	59.8	59.8	75	51.9	1	4	270	0.00	29.944 
05:25	59.6	59.6	59.6	74	51.3	1	3	270	0.00	29.944 
05:30	59.6	59.6	59.6	75	51.7	0	3	270	0.00	29.947 
05:35	59.6	59.6	59.6	75	51.7	1	3	270	0.00	29.947 
05:40	59.5	59.5	59.5	74	51.2	1	4	270	0.00	29.947 
05:45	59.5	59.5	59.5	75	51.6	1	3	270	0.00	29.957 
05:50	59.5	59.5	59.5	75	51.6	1	3	270	0.00	29.957 
05:55	59.5	59.5	59.5	76	51.9	0	1	270	0.00	29.957 
06:00	59.5	59.5	59.5	76	51.9	0	3	270	0.00	29.957 
06:05	59.3	59.3	59.3	76	51.7	1	3	270	0.00	29.957 
06:10	59.3	59.3	59.3	76	51.7	0	2	270	0.00	29.957 
06:15	59.3	59.3	59.3	76	51.7	0	2	270	0.00	29.961 
06:20	59.3	59.3	59.3	77	52.1	0	3	270	0.00	29.961 
06:25	59.3	59.3	59.3	77	52.1	0	1	270	0.00	29.961 
06:30	59.5	59.5	59.5	77	52.3	0	1	270	0.00	29.966 
06:35	59.5	59.5	59.5	77	52.3	0	2	270	0.00	29.966 
06:40	59.5	59.5	59.5	77	52.3	1	3	270	0.00	29.966 
06:45	59.5	59.5	59.5	78	52.6	1	4	292	0.00	29.976 
06:50	59.5	59.5	59.5	78	52.6	0	2	292	0.00	29.976 
06:55	59.5	59.5	59.5	78	52.6	2	5	292	0.00	29.976 
07:00	59.3	59.3	59.3	79	52.8	1	3	270	0.00	29.981 
07:05	59.3	59.3	59.3	80	53.1	1	3	270	0.00	29.981 
07:10	59.3	59.3	59.3	80	53.1	1	3	270	0.00	29.981 
07:15	59.3	59.3	59.3	80	53.1	0	2	270	0.00	29.990 
07:20	59.2	59.2	59.2	80	53.0	2	5	270	0.00	29.990 
07:25	59.2	59.2	59.2	80	53.0	2	5	270	0.00	29.990 
07:30	59.2	59.2	59.2	81	53.4	1	4	292	0.00	29.986 
07:35	59.0	59.0	59.0	81	53.2	2	4	292	0.00	29.986 
07:40	59.0	59.0	59.0	81	53.2	1	5	338	0.00	29.986 
07:45	59.0	59.0	59.0	82	53.5	1	4	338	0.00	29.994 
07:50	59.0	59.0	59.0	82	53.5	0	3	270	0.00	29.994 
07:55	59.0	59.0	59.0	82	53.5	2	4	270	0.00	29.994 
08:00	59.0	59.0	59.0	82	53.5	2	5	270	0.00	29.996 
08:05	58.9	58.9	58.9	83	53.7	1	3	270	0.00	29.996 
08:10	58.9	58.9	58.9	83	53.7	1	3	270	0.00	29.996 
08:15	58.7	58.7	58.7	84	53.9	1	3	270	0.00	30.001 
08:20	58.9	58.9	58.9	84	54.1	1	4	270	0.00	30.001 
08:25	58.9	58.9	58.9	84	54.1	1	3	270	0.00	30.001 
08:30	59.0	59.0	59.0	84	54.2	1	4	270	0.00	30.007 
08:35	59.0	59.0	59.0	83	53.8	2	4	270	0.00	30.007 
08:40	59.2	59.2	59.2	84	54.4	1	3	292	0.00	30.007 
08:45	59.2	59.2	59.2	84	54.4	1	3	292	0.00	30.005 
08:50	59.2	59.2	59.2	84	54.4	1	3	292	0.00	30.005 
08:55	59.2	59.2	59.2	84	54.4	0	2	292	0.00	30.005 
09:00	59.3	59.3	59.3	84	54.5	1	3	292	0.00	30.013 
09:05	59.3	59.3	59.3	84	54.5	1	4	292	0.00	30.013 
09:10	59.3	59.3	59.3	84	54.5	1	3	292	0.00	30.013 
09:15	59.2	59.2	59.2	84	54.4	2	5	270	0.00	30.017 
09:20	59.0	59.0	59.0	84	54.2	1	4	292	0.00	30.017 
09:25	58.9	58.9	58.9	85	54.4	1	4	292	0.00	30.017 
09:30	58.9	58.9	58.9	85	54.4	0	4	292	0.00	30.016 
09:35	58.9	58.9	58.9	85	54.4	0	3	292	0.00	30.016 
09:40	58.9	58.9	58.9	85	54.4	1	4	292	0.00	30.016 
09:45	58.9	58.9	58.9	85	54.4	0	3	292	0.00	30.017 
09:50	58.9	58.9	58.9	85	54.4	1	3	292	0.00	30.017 
09:55	58.9	58.9	58.9	84	54.1	1	4	292	0.00	30.017 
10:00	58.7	58.7	58.7	84	53.9	1	7	315	0.00	30.021 
10:05	58.7	58.7	58.7	84	53.9	1	4	315	0.00	30.021 
10:10	58.7	58.7	58.7	84	53.9	1	2	315	0.00	30.021 
10:15	59.2	59.2	59.2	84	54.4	1	4	315	0.00	30.025 
10:20	59.9	59.9	59.9	82	54.4	1	4	270	0.00	30.025 
10:25	60.2	60.2	60.2	80	54.0	1	3	292	0.00	30.025 
10:30	60.4	60.4	60.4	79	53.9	1	3	292	0.00	30.030 
10:35	60.4	60.4	60.4	78	53.5	1	4	292	0.00	30.030 
10:40	60.2	60.2	60.2	77	53.0	2	5	270	0.00	30.030 
10:45	60.2	60.2	60.2	77	53.0	1	3	270	0.00	30.031 
10:50	60.4	60.4	60.4	75	52.4	1	5	338	0.00	30.031 
10:55	60.7	60.7	60.7	72	51.6	2	5	315	0.00	30.031 
11:00	61.0	61.0	61.0	71	51.5	1	5	338	0.00	30.040 
11:05	61.2	61.2	61.2	69	50.9	1	4	338	0.00	30.040 
11:10	61.3	61.3	61.3	68	50.6	2	4	315	0.00	30.040 
11:15	61.2	61.2	61.2	65	49.3	2	5	292	0.00	30.047 
11:20	61.3	61.3	61.3	65	49.4	1	4	292	0.00	30.047 
11:25	61.6	61.6	61.6	63	48.9	2	5	292	0.00	30.047 
11:30	61.6	61.6	61.6	63	48.9	3	5	292	0.00	30.049 
11:35	61.5	61.5	61.5	63	48.8	2	5	315	0.00	30.049 
11:40	62.0	62.0	62.0	64	49.7	1	4	292	0.00	30.049 
11:45	62.6	62.6	62.6	62	49.4	1	3	315	0.00	30.054 
11:50	63.1	63.1	63.1	62	49.9	1	3	315	0.00	30.054 
11:55	63.4	63.4	63.4	63	50.6	2	5	292	0.00	30.054 
12:00	63.5	63.5	63.5	59	48.9	3	7	292	0.00	30.054 
12:05	63.7	63.7	63.7	60	49.5	2	6	292	0.00	30.054 
12:10	64.2	64.2	64.2	60	50.0	2	4	315	0.00	30.054 
12:15	64.5	64.5	64.5	59	49.8	1	6	315	0.00	30.058 
12:20	64.8	64.8	64.8	61	51.0	1	3	338	0.00	30.058 
12:25	65.2	65.2	65.2	57	49.6	2	4	292	0.00	30.058 
12:30	65.3	65.3	65.3	59	50.6	1	4	292	0.00	30.058 
12:35	65.2	65.2	65.2	58	50.0	2	7	270	0.00	30.058 
12:40	65.3	65.3	65.3	59	50.6	2	4	292	0.00	30.058 
12:45	65.0	65.0	65.0	57	49.4	3	7	315	0.00	30.061 
12:50	65.5	65.5	65.5	57	49.9	2	6	270	0.00	30.061 
12:55	65.8	65.8	65.8	56	49.7	2	6	315	0.00	30.061 
13:00	66.1	66.1	66.1	52	48.0	2	7	292	0.00	30.072 
13:05	66.3	66.3	66.3	54	49.1	1	5	315	0.00	30.072 
13:10	66.4	66.4	66.4	51	47.7	2	5	315	0.00	30.072 
13:15	66.8	66.8	66.8	52	48.6	2	5	270	0.00	30.074 
13:20	66.9	66.9	66.9	46	45.4	3	6	315	0.00	30.074 
13:25	67.1	67.1	67.1	44	44.5	2	6	315	0.00	30.074 
13:30	67.6	67.6	67.6	50	48.3	2	5	315	0.00	30.074 
13:35	67.8	67.8	67.8	44	45.1	2	4	338	0.00	30.074 
13:40	67.9	67.9	67.9	45	45.8	2	6	338	0.00	30.074 
13:45	67.9	67.9	67.9	43	44.6	3	5	315	0.00	30.076 
13:50	68.1	68.1	68.1	46	46.5	2	6	315	0.00	30.076 
13:55	68.4	68.4	68.4	41	43.8	2	6	270	0.00	30.076 
14:00	68.8	68.8	68.8	40	43.5	2	5	292	0.00	30.073 
14:05	68.9	68.9	68.9	37	41.5	3	5	292	0.00	30.073 
14:10	69.3	69.3	69.3	39	43.3	2	6	292	0.00	30.073 
14:15	69.3	69.3	69.3	40	43.9	3	5	315	0.00	30.072 
14:20	69.3	69.3	69.3	40	43.9	3	7	315	0.00	30.072 
14:25	69.4	69.4	69.4	44	46.5	2	6	315	0.00	30.072 
14:30	69.6	69.6	69.6	40	44.2	2	6	0	0.00	30.074 
14:35	69.9	69.9	69.9	40	44.5	3	6	292	0.00	30.074 
14:40	69.8	69.8	69.8	40	44.4	2	6	292	0.00	30.074 
14:45	69.9	69.9	69.9	40	44.5	2	5	315	0.00	30.072 
14:50	70.1	70.1	70.1	43	46.6	3	9	315	0.00	30.072 
14:55	70.1	70.1	70.1	40	44.6	2	6	315	0.00	30.072 
15:00	70.4	70.4	70.4	45	48.0	2	5	338	0.00	30.074 
15:05	70.4	70.4	70.4	40	44.9	3	7	292	0.00	30.074 
15:10	70.8	70.8	70.8	39	44.6	2	7	292	0.00	30.074 
15:15	70.6	70.6	70.6	40	45.1	3	6	338	0.00	30.074 
15:20	70.6	70.6	70.6	43	47.0	2	5	315	0.00	30.074 
15:25	70.9	70.9	70.9	41	46.0	2	5	315	0.00	30.074 
15:30	71.3	71.3	71.3	41	46.4	2	7	338	0.00	30.074 
15:35	71.3	71.3	71.3	39	45.1	3	6	292	0.00	30.074 
15:40	71.6	71.6	71.6	43	47.9	1	5	292	0.00	30.074 
15:45	71.8	71.8	71.8	41	46.8	3	6	292	0.00	30.071 
15:50	72.0	72.0	72.0	41	47.0	2	4	315	0.00	30.071 
15:55	72.0	72.0	72.0	42	47.6	3	9	315	0.00	30.071 
16:00	72.3	72.3	72.3	40	46.6	2	5	315	0.00	30.069 
16:05	72.7	72.7	72.7	37	44.9	2	6	315	0.00	30.069 
16:10	72.3	72.3	72.3	41	47.3	3	6	338	0.00	30.069 
16:15	72.1	72.1	72.1	38	45.1	2	5	315	0.00	30.073 
16:20	72.3	72.3	72.3	32	40.8	2	7	292	0.00	30.073 
16:25	72.1	72.1	72.1	32	40.6	3	7	270	0.00	30.073 
16:30	72.0	72.0	72.0	35	42.8	1	5	315	0.00	30.073 
16:35	72.0	72.0	72.0	36	43.6	2	6	315	0.00	30.073 
16:40	72.1	72.1	72.1	33	41.4	3	9	292	0.00	30.073 
16:45	72.1	72.1	72.1	33	41.4	3	7	292	0.00	30.075 
16:50	72.0	72.0	72.0	31	39.7	3	9	315	0.00	30.075 
16:55	72.0	72.0	72.0	32	40.5	2	4	315	0.00	30.075 
17:00	72.5	72.5	72.5	34	42.5	2	5	292	0.00	30.076 
17:05	72.5	72.5	72.5	32	41.0	2	5	292	0.00	30.076 
17:10	72.5	72.5	72.5	35	43.3	2	5	292	0.00	30.076 
17:15	72.5	72.5	72.5	34	42.5	2	5	315	0.00	30.075 
17:20	72.3	72.3	72.3	34	42.3	3	6	292	0.00	30.075 
17:25	72.1	72.1	72.1	37	44.4	2	6	338	0.00	30.075 
17:30	72.1	72.1	72.1	38	45.1	1	4	338	0.00	30.071 
17:35	72.3	72.3	72.3	38	45.3	2	7	338	0.00	30.071 
17:40	72.5	72.5	72.5	37	44.7	2	6	315	0.00	30.071 
17:45	72.5	72.5	72.5	41	47.4	2	4	315	0.00	30.074 
17:50	72.5	72.5	72.5	37	44.7	2	6	338	0.00	30.074 
17:55	72.5	72.5	72.5	38	45.4	2	5	270	0.00	30.074 
18:00	72.1	72.1	72.1	37	44.4	2	5	292	0.00	30.073 
18:05	71.8	71.8	71.8	37	44.1	3	6	315	0.00	30.073 
18:10	71.6	71.6	71.6	36	43.2	2	5	270	0.00	30.073 
18:15	71.6	71.6	71.6	36	43.2	2	5	292	0.00	30.076 
18:20	71.3	71.3	71.3	37	43.7	2	5	292	0.00	30.076 
18:25	71.3	71.3	71.3	37	43.7	2	6	315	0.00	30.076 
18:30	71.1	71.1	71.1	37	43.5	2	7	292	0.00	30.076 
18:35	71.3	71.3	71.3	36	43.0	2	7	292	0.00	30.076 
18:40	71.3	71.3	71.3	38	44.4	1	6	315	0.00	30.076 
18:45	71.3	71.3	71.3	36	43.0	3	9	315	0.00	30.080 
18:50	71.1	71.1	71.1	36	42.8	2	5	292	0.00	30.080 
18:55	71.1	71.1	71.1	36	42.8	2	5	270	0.00	30.080 
19:00	71.1	71.1	71.1	37	43.5	1	4	292	0.00	30.078 
19:05	70.9	70.9	70.9	33	40.3	2	6	292	0.00	30.078 
19:10	70.8	70.8	70.8	34	41.0	2	7	270	0.00	30.078 
19:15	70.8	70.8	70.8	35	41.8	2	5	270	0.00	30.088 
19:20	70.6	70.6	70.6	36	42.3	1	4	292	0.00	30.088 
19:25	70.8	70.8	70.8	37	43.2	1	3	270	0.00	30.088 
19:30	70.6	70.6	70.6	34	40.9	1	3	270	0.00	30.091 
19:35	70.3	70.3	70.3	35	41.3	1	3	292	0.00	30.091 
19:40	70.1	70.1	70.1	37	42.6	1	4	292	0.00	30.091 
19:45	69.9	69.9	69.9	38	43.1	1	3	292	0.00	30.100 
19:50	69.9	69.9	69.9	36	41.7	1	5	270	0.00	30.100 
19:55	69.9	69.9	69.9	37	42.4	1	3	270	0.00	30.100 
20:00	69.6	69.6	69.6	37	42.2	1	4	270	0.00	30.105 
20:05	69.4	69.4	69.4	38	42.7	0	1	270	0.00	30.105 
20:10	69.3	69.3	69.3	40	43.9	1	3	270	0.00	30.105 
20:15	69.1	69.1	69.1	39	43.1	0	3	270	0.00	30.109 
20:20	68.9	68.9	68.9	40	43.6	0	2	270	0.00	30.109 
20:25	68.6	68.6	68.6	39	42.6	1	4	315	0.00	30.109 
20:30	68.4	68.4	68.4	38	41.8	0	2	315	0.00	30.112 
20:35	68.3	68.3	68.3	39	42.4	0	1	315	0.00	30.112 
20:40	68.1	68.1	68.1	40	42.9	0	2	315	0.00	30.112 
20:45	67.8	67.8	67.8	41	43.2	0	1	315	0.00	30.113 
20:50	67.4	67.4	67.4	42	43.5	0	1	315	0.00	30.113 
20:55	67.1	67.1	67.1	43	43.8	0	1	315	0.00	30.113 
21:00	66.8	66.8	66.8	43	43.6	0	0	---	0.00	30.118 
21:05	66.4	66.4	66.4	44	43.8	0	1	315	0.00	30.118 
21:10	66.1	66.1	66.1	44	43.5	0	1	315	0.00	30.118 
21:15	66.0	66.0	66.0	45	44.0	0	1	315	0.00	30.122 
21:20	65.6	65.6	65.6	45	43.7	0	0	---	0.00	30.122 
21:25	65.5	65.5	65.5	46	44.2	0	0	---	0.00	30.122 
21:30	65.2	65.2	65.2	47	44.5	0	0	---	0.00	30.124 
21:35	64.8	64.8	64.8	47	44.1	0	0	---	0.00	30.124 
21:40	64.3	64.3	64.3	49	44.7	0	0	---	0.00	30.124 
21:45	64.0	64.0	64.0	50	45.0	0	0	---	0.00	30.130 
21:50	63.7	63.7	63.7	51	45.2	0	0	---	0.00	30.130 
21:55	63.2	63.2	63.2	54	46.3	0	0	---	0.00	30.130 
22:00	62.7	62.7	62.7	56	46.8	0	0	---	0.00	30.134 
22:05	62.3	62.3	62.3	57	46.9	0	0	---	0.00	30.134 
22:10	62.0	62.0	62.0	58	47.0	0	0	---	0.00	30.134 
22:15	61.5	61.5	61.5	59	47.0	0	0	---	0.00	30.140 
22:20	61.2	61.2	61.2	60	47.2	0	0	---	0.00	30.140 
22:25	60.7	60.7	60.7	59	46.3	0	0	---	0.00	30.140 
22:30	60.5	60.5	60.5	61	47.0	0	0	---	0.00	30.143 
22:35	60.2	60.2	60.2	61	46.7	0	0	---	0.00	30.143 
22:40	59.9	59.9	59.9	62	46.8	0	0	---	0.00	30.143 
22:45	59.8	59.8	59.8	64	47.6	0	0	---	0.00	30.145 
22:50	59.5	59.5	59.5	65	47.7	0	0	---	0.00	30.145 
22:55	59.3	59.3	59.3	64	47.1	0	0	---	0.00	30.145 
23:00	59.0	59.0	59.0	65	47.2	0	0	---	0.00	30.147 
23:05	58.9	58.9	58.9	66	47.6	0	0	---	0.00	30.147 
23:10	58.9	58.9	58.9	66	47.6	0	0	---	0.00	30.147 
23:15	58.7	58.7	58.7	68	48.2	0	0	---	0.00	30.145 
23:20	58.6	58.6	58.6	68	48.1	0	0	---	0.00	30.145 
23:25	58.4	58.4	58.4	68	47.9	0	0	---	0.00	30.145 
23:30	58.3	58.3	58.3	68	47.8	0	0	---	0.00	30.149 
23:35	58.1	58.1	58.1	70	48.4	0	0	---	0.00	30.149 
23:40	58.0	58.0	58.0	70	48.3	0	0	---	0.00	30.149 
23:45	58.0	58.0	58.0	71	48.6	0	0	---	0.00	30.153 
23:50	57.8	57.8	57.8	71	48.5	0	0	---	0.00	30.153 
23:55	57.6	57.6	57.6	71	48.3	0	0	---	0.00	30.153 

CoCoRaHS
IN-AL-39
A2 Web Hosting
Creative Commons License
GoDaddy
search engine by freefind advanced

loaded 2018-11-15 03:59:30 • last modified 2010-11-18 10:43:29
Privacy PolicyDisclaimer
• wx.awcolley.com is powered by PmWiki v.2002016 •
• all content (unless otherwise noted) © 2018 A W Colley